sensor_id;sensor_type;location;lat;lon;timestamp;pressure;altitude;pressure_sealevel;temperature;humidity
30343;BME280;17145;49.902;8.680;'2023-02-21 00:59:02';100550;;;9;45
30343;BME280;17145;49.902;8.680;'2023-02-21 01:01:29';100540;;;9;45
30343;BME280;17145;49.902;8.680;'2023-02-21 01:03:57';100540;;;9;45
30343;BME280;17145;49.902;8.680;'2023-02-21 01:06:24';100540;;;9;45
30343;BME280;17145;49.902;8.680;'2023-02-21 01:08:51';100540;;;9;45
30343;BME280;17145;49.902;8.680;'2023-02-21 01:11:19';100540;;;9;45
30343;BME280;17145;49.902;8.680;'2023-02-21 01:13:46';100540;;;9;45
30343;BME280;17145;49.902;8.680;'2023-02-21 01:16:15';100540;;;9;46
30343;BME280;17145;49.902;8.680;'2023-02-21 01:18:42';100540;;;9;46
30343;BME280;17145;49.902;8.680;'2023-02-21 01:21:10';100540;;;9;46
30343;BME280;17145;49.902;8.680;'2023-02-21 01:23:37';100540;;;9;46
30343;BME280;17145;49.902;8.680;'2023-02-21 01:26:05';100540;;;9;46
30343;BME280;17145;49.902;8.680;'2023-02-21 01:28:32';100540;;;9;46
30343;BME280;17145;49.902;8.680;'2023-02-21 01:31:00';100540;;;9;45
30343;BME280;17145;49.902;8.680;'2023-02-21 01:33:28';100530;;;9;46
30343;BME280;17145;49.902;8.680;'2023-02-21 01:35:55';100530;;;9;46
30343;BME280;17145;49.902;8.680;'2023-02-21 01:38:23';100530;;;9;46
30343;BME280;17145;49.902;8.680;'2023-02-21 01:40:50';100530;;;9;46
30343;BME280;17145;49.902;8.680;'2023-02-21 01:43:18';100530;;;9;46
30343;BME280;17145;49.902;8.680;'2023-02-21 01:45:46';100530;;;9;46
30343;BME280;17145;49.902;8.680;'2023-02-21 01:48:18';100530;;;9;46
30343;BME280;17145;49.902;8.680;'2023-02-21 01:50:46';100520;;;9;46
30343;BME280;17145;49.902;8.680;'2023-02-21 01:53:13';100520;;;9;46
30343;BME280;17145;49.902;8.680;'2023-02-21 01:55:41';100520;;;9;46
30343;BME280;17145;49.902;8.680;'2023-02-21 01:58:08';100520;;;9;46
30343;BME280;17145;49.902;8.680;'2023-02-21 02:00:36';100520;;;9;46
30343;BME280;17145;49.902;8.680;'2023-02-21 02:03:04';100520;;;9;46
30343;BME280;17145;49.902;8.680;'2023-02-21 02:05:32';100520;;;9;46
30343;BME280;17145;49.902;8.680;'2023-02-21 02:07:59';100520;;;9;46
30343;BME280;17145;49.902;8.680;'2023-02-21 02:10:27';100520;;;9;46
30343;BME280;17145;49.902;8.680;'2023-02-21 02:12:54';100520;;;9;46
30343;BME280;17145;49.902;8.680;'2023-02-21 02:15:22';100520;;;9;46
30343;BME280;17145;49.902;8.680;'2023-02-21 02:17:50';100520;;;9;46
30343;BME280;17145;49.902;8.680;'2023-02-21 02:20:18';100520;;;9;46
30343;BME280;17145;49.902;8.680;'2023-02-21 02:22:46';100520;;;9;46
30343;BME280;17145;49.902;8.680;'2023-02-21 02:25:14';100530;;;9;46
30343;BME280;17145;49.902;8.680;'2023-02-21 02:27:41';100530;;;9;46
30343;BME280;17145;49.902;8.680;'2023-02-21 02:30:09';100530;;;9;46
30343;BME280;17145;49.902;8.680;'2023-02-21 02:32:37';100530;;;9;46
30343;BME280;17145;49.902;8.680;'2023-02-21 02:35:05';100530;;;9;46
30343;BME280;17145;49.902;8.680;'2023-02-21 02:37:33';100530;;;9;46
30343;BME280;17145;49.902;8.680;'2023-02-21 02:40:00';100540;;;9;46
30343;BME280;17145;49.902;8.680;'2023-02-21 02:45:10';100530;;;9;46
30343;BME280;17145;49.902;8.680;'2023-02-21 02:47:38';100530;;;9;46
30343;BME280;17145;49.902;8.680;'2023-02-21 02:50:10';100530;;;9;46
30343;BME280;17145;49.902;8.680;'2023-02-21 02:52:37';100520;;;9;46
30343;BME280;17145;49.902;8.680;'2023-02-21 02:55:06';100520;;;9;46
30343;BME280;17145;49.902;8.680;'2023-02-21 02:57:35';100520;;;9;46
30343;BME280;17145;49.902;8.680;'2023-02-21 03:00:05';100520;;;9;46
30343;BME280;17145;49.902;8.680;'2023-02-21 03:02:41';100520;;;9;46
30343;BME280;17145;49.902;8.680;'2023-02-21 03:05:10';100510;;;9;46
30343;BME280;17145;49.902;8.680;'2023-02-21 03:07:38';100510;;;8;46
30343;BME280;17145;49.902;8.680;'2023-02-21 03:10:09';100510;;;8;46
30343;BME280;17145;49.902;8.680;'2023-02-21 03:12:55';100510;;;8;46
30343;BME280;17145;49.902;8.680;'2023-02-21 03:15:37';100510;;;8;47
30343;BME280;17145;49.902;8.680;'2023-02-21 03:21:00';100500;;;9;46
30343;BME280;17145;49.902;8.680;'2023-02-21 03:26:29';100500;;;8;47
30343;BME280;17145;49.902;8.680;'2023-02-21 03:31:56';100500;;;8;47
30343;BME280;17145;49.902;8.680;'2023-02-21 03:34:39';100500;;;8;46
30343;BME280;17145;49.902;8.680;'2023-02-21 03:37:13';100500;;;8;47
30343;BME280;17145;49.902;8.680;'2023-02-21 03:39:48';100500;;;8;46
30343;BME280;17145;49.902;8.680;'2023-02-21 03:42:28';100500;;;8;47
30343;BME280;17145;49.902;8.680;'2023-02-21 03:45:02';100500;;;9;47
30343;BME280;17145;49.902;8.680;'2023-02-21 03:47:35';100500;;;8;47
30343;BME280;17145;49.902;8.680;'2023-02-21 03:50:05';100490;;;8;47
30343;BME280;17145;49.902;8.680;'2023-02-21 03:52:34';100500;;;8;47
30343;BME280;17145;49.902;8.680;'2023-02-21 03:55:09';100490;;;8;47
30343;BME280;17145;49.902;8.680;'2023-02-21 03:57:36';100490;;;8;47
30343;BME280;17145;49.902;8.680;'2023-02-21 04:00:05';100490;;;8;47
30343;BME280;17145;49.902;8.680;'2023-02-21 04:02:49';100490;;;8;47
30343;BME280;17145;49.902;8.680;'2023-02-21 04:05:31';100500;;;8;47
30343;BME280;17145;49.902;8.680;'2023-02-21 04:08:08';100500;;;7;47
30343;BME280;17145;49.902;8.680;'2023-02-21 04:10:44';100500;;;8;47
30343;BME280;17145;49.902;8.680;'2023-02-21 04:13:17';100510;;;7;47
30343;BME280;17145;49.902;8.680;'2023-02-21 04:15:51';100510;;;7;47
30343;BME280;17145;49.902;8.680;'2023-02-21 04:18:25';100510;;;7;47
30343;BME280;17145;49.902;8.680;'2023-02-21 04:20:56';100510;;;7;47
30343;BME280;17145;49.902;8.680;'2023-02-21 04:23:27';100510;;;7;47
30343;BME280;17145;49.902;8.680;'2023-02-21 04:25:57';100520;;;7;47
30343;BME280;17145;49.902;8.680;'2023-02-21 04:28:27';100510;;;7;47
30343;BME280;17145;49.902;8.680;'2023-02-21 04:30:58';100520;;;7;47
30343;BME280;17145;49.902;8.680;'2023-02-21 04:33:25';100520;;;7;47
30343;BME280;17145;49.902;8.680;'2023-02-21 04:35:53';100520;;;7;47
30343;BME280;17145;49.902;8.680;'2023-02-21 04:38:21';100520;;;7;47
30343;BME280;17145;49.902;8.680;'2023-02-21 04:40:49';100510;;;7;47
30343;BME280;17145;49.902;8.680;'2023-02-21 04:43:16';100510;;;7;47
30343;BME280;17145;49.902;8.680;'2023-02-21 04:45:43';100520;;;6;48
30343;BME280;17145;49.902;8.680;'2023-02-21 04:48:11';100510;;;6;48
30343;BME280;17145;49.902;8.680;'2023-02-21 04:50:38';100510;;;6;48
30343;BME280;17145;49.902;8.680;'2023-02-21 04:53:06';100510;;;6;48
30343;BME280;17145;49.902;8.680;'2023-02-21 04:55:34';100500;;;6;48
30343;BME280;17145;49.902;8.680;'2023-02-21 04:58:01';100500;;;6;48
30343;BME280;17145;49.902;8.680;'2023-02-21 05:00:28';100500;;;6;48
30343;BME280;17145;49.902;8.680;'2023-02-21 05:02:56';100500;;;6;49
30343;BME280;17145;49.902;8.680;'2023-02-21 05:05:23';100500;;;6;49
30343;BME280;17145;49.902;8.680;'2023-02-21 05:07:50';100500;;;6;49
30343;BME280;17145;49.902;8.680;'2023-02-21 05:10:18';100500;;;6;50
30343;BME280;17145;49.902;8.680;'2023-02-21 05:12:45';100500;;;6;49
30343;BME280;17145;49.902;8.680;'2023-02-21 05:15:13';100500;;;6;49
30343;BME280;17145;49.902;8.680;'2023-02-21 05:17:40';100500;;;6;50
30343;BME280;17145;49.902;8.680;'2023-02-21 05:20:09';100490;;;6;50
30343;BME280;17145;49.902;8.680;'2023-02-21 05:22:36';100500;;;6;50
30343;BME280;17145;49.902;8.680;'2023-02-21 05:25:04';100500;;;6;50
30343;BME280;17145;49.902;8.680;'2023-02-21 05:27:32';100500;;;6;51
30343;BME280;17145;49.902;8.680;'2023-02-21 05:29:59';100500;;;6;51
30343;BME280;17145;49.902;8.680;'2023-02-21 05:32:26';100500;;;6;51
30343;BME280;17145;49.902;8.680;'2023-02-21 05:34:54';100500;;;6;51
30343;BME280;17145;49.902;8.680;'2023-02-21 05:37:21';100500;;;6;51
30343;BME280;17145;49.902;8.680;'2023-02-21 05:39:49';100490;;;6;51
30343;BME280;17145;49.902;8.680;'2023-02-21 05:42:16';100490;;;7;51
30343;BME280;17145;49.902;8.680;'2023-02-21 05:44:44';100480;;;7;50
30343;BME280;17145;49.902;8.680;'2023-02-21 05:47:11';100480;;;7;51
30343;BME280;17145;49.902;8.680;'2023-02-21 05:49:38';100480;;;7;51
30343;BME280;17145;49.902;8.680;'2023-02-21 05:52:06';100480;;;7;51
30343;BME280;17145;49.902;8.680;'2023-02-21 05:54:34';100480;;;7;51
30343;BME280;17145;49.902;8.680;'2023-02-21 05:57:01';100480;;;7;51
30343;BME280;17145;49.902;8.680;'2023-02-21 05:59:29';100480;;;7;51
30343;BME280;17145;49.902;8.680;'2023-02-21 06:01:56';100480;;;7;51
30343;BME280;17145;49.902;8.680;'2023-02-21 06:04:24';100480;;;7;51
30343;BME280;17145;49.902;8.680;'2023-02-21 06:06:52';100480;;;7;51
30343;BME280;17145;49.902;8.680;'2023-02-21 06:09:19';100480;;;7;50
30343;BME280;17145;49.902;8.680;'2023-02-21 06:11:46';100480;;;7;50
30343;BME280;17145;49.902;8.680;'2023-02-21 06:14:14';100480;;;7;50
30343;BME280;17145;49.902;8.680;'2023-02-21 06:16:42';100470;;;7;50
30343;BME280;17145;49.902;8.680;'2023-02-21 06:19:10';100470;;;7;50
30343;BME280;17145;49.902;8.680;'2023-02-21 06:21:38';100470;;;7;50
30343;BME280;17145;49.902;8.680;'2023-02-21 06:24:06';100470;;;7;50
30343;BME280;17145;49.902;8.680;'2023-02-21 06:26:36';100470;;;7;50
30343;BME280;17145;49.902;8.680;'2023-02-21 06:29:04';100460;;;7;51
30343;BME280;17145;49.902;8.680;'2023-02-21 06:31:32';100460;;;7;51
30343;BME280;17145;49.902;8.680;'2023-02-21 06:34:00';100460;;;7;51
30343;BME280;17145;49.902;8.680;'2023-02-21 06:36:27';100460;;;7;51
30343;BME280;17145;49.902;8.680;'2023-02-21 06:38:55';100460;;;7;51
30343;BME280;17145;49.902;8.680;'2023-02-21 06:41:23';100460;;;7;51
30343;BME280;17145;49.902;8.680;'2023-02-21 06:43:51';100460;;;7;51
30343;BME280;17145;49.902;8.680;'2023-02-21 06:46:22';100460;;;7;51
30343;BME280;17145;49.902;8.680;'2023-02-21 06:48:51';100460;;;7;51
30343;BME280;17145;49.902;8.680;'2023-02-21 06:51:19';100460;;;7;51
30343;BME280;17145;49.902;8.680;'2023-02-21 06:53:47';100470;;;7;51
30343;BME280;17145;49.902;8.680;'2023-02-21 06:56:16';100470;;;7;51
30343;BME280;17145;49.902;8.680;'2023-02-21 06:58:43';100470;;;7;50
30343;BME280;17145;49.902;8.680;'2023-02-21 07:01:11';100480;;;7;50
30343;BME280;17145;49.902;8.680;'2023-02-21 07:03:38';100480;;;7;50
30343;BME280;17145;49.902;8.680;'2023-02-21 07:06:06';100480;;;7;50
30343;BME280;17145;49.902;8.680;'2023-02-21 07:08:42';100480;;;7;50
30343;BME280;17145;49.902;8.680;'2023-02-21 07:11:09';100480;;;7;50
30343;BME280;17145;49.902;8.680;'2023-02-21 07:13:37';100480;;;7;50
30343;BME280;17145;49.902;8.680;'2023-02-21 07:16:05';100480;;;7;50
30343;BME280;17145;49.902;8.680;'2023-02-21 07:18:32';100470;;;7;50
30343;BME280;17145;49.902;8.680;'2023-02-21 07:21:00';100480;;;7;50
30343;BME280;17145;49.902;8.680;'2023-02-21 07:23:27';100480;;;7;50
30343;BME280;17145;49.902;8.680;'2023-02-21 07:25:54';100480;;;7;50
30343;BME280;17145;49.902;8.680;'2023-02-21 07:28:27';100480;;;7;50
30343;BME280;17145;49.902;8.680;'2023-02-21 07:30:54';100480;;;7;50
30343;BME280;17145;49.902;8.680;'2023-02-21 07:33:21';100480;;;8;50
30343;BME280;17145;49.902;8.680;'2023-02-21 07:35:49';100480;;;7;50
30343;BME280;17145;49.902;8.680;'2023-02-21 07:38:16';100480;;;7;50
30343;BME280;17145;49.902;8.680;'2023-02-21 07:40:44';100480;;;7;50
30343;BME280;17145;49.902;8.680;'2023-02-21 07:43:11';100480;;;7;50
30343;BME280;17145;49.902;8.680;'2023-02-21 07:45:38';100480;;;7;50
30343;BME280;17145;49.902;8.680;'2023-02-21 07:48:06';100490;;;7;50
30343;BME280;17145;49.902;8.680;'2023-02-21 07:50:33';100490;;;7;50
30343;BME280;17145;49.902;8.680;'2023-02-21 07:53:00';100490;;;7;50
30343;BME280;17145;49.902;8.680;'2023-02-21 07:55:28';100490;;;7;49
30343;BME280;17145;49.902;8.680;'2023-02-21 07:57:55';100500;;;7;50
30343;BME280;17145;49.902;8.680;'2023-02-21 08:00:23';100490;;;8;49
30343;BME280;17145;49.902;8.680;'2023-02-21 08:02:50';100490;;;8;50
30343;BME280;17145;49.902;8.680;'2023-02-21 08:05:18';100500;;;7;49
30343;BME280;17145;49.902;8.680;'2023-02-21 08:10:13';100500;;;7;50
30343;BME280;17145;49.902;8.680;'2023-02-21 08:12:41';100500;;;7;50
30343;BME280;17145;49.902;8.680;'2023-02-21 08:15:08';100500;;;7;50
30343;BME280;17145;49.902;8.680;'2023-02-21 08:17:35';100500;;;8;50
30343;BME280;17145;49.902;8.680;'2023-02-21 08:20:04';100490;;;7;50
30343;BME280;17145;49.902;8.680;'2023-02-21 08:22:31';100500;;;8;50
30343;BME280;17145;49.902;8.680;'2023-02-21 08:24:58';100500;;;8;50
30343;BME280;17145;49.902;8.680;'2023-02-21 08:27:26';100500;;;7;50
30343;BME280;17145;49.902;8.680;'2023-02-21 08:29:53';100500;;;7;50
30343;BME280;17145;49.902;8.680;'2023-02-21 08:32:21';100490;;;8;50
30343;BME280;17145;49.902;8.680;'2023-02-21 08:34:48';100490;;;8;50
30343;BME280;17145;49.902;8.680;'2023-02-21 08:37:16';100490;;;8;49
30343;BME280;17145;49.902;8.680;'2023-02-21 08:39:44';100490;;;8;49
30343;BME280;17145;49.902;8.680;'2023-02-21 08:42:11';100490;;;8;49
30343;BME280;17145;49.902;8.680;'2023-02-21 08:44:38';100500;;;8;49
30343;BME280;17145;49.902;8.680;'2023-02-21 08:47:06';100500;;;8;49
30343;BME280;17145;49.902;8.680;'2023-02-21 08:49:37';100500;;;8;48
30343;BME280;17145;49.902;8.680;'2023-02-21 08:52:05';100500;;;8;48
30343;BME280;17145;49.902;8.680;'2023-02-21 08:54:32';100490;;;8;49
30343;BME280;17145;49.902;8.680;'2023-02-21 08:56:59';100490;;;8;49
30343;BME280;17145;49.902;8.680;'2023-02-21 08:59:27';100500;;;8;49
30343;BME280;17145;49.902;8.680;'2023-02-21 09:01:54';100500;;;8;49
30343;BME280;17145;49.902;8.680;'2023-02-21 09:04:22';100500;;;8;49
30343;BME280;17145;49.902;8.680;'2023-02-21 09:06:49';100500;;;8;49
30343;BME280;17145;49.902;8.680;'2023-02-21 09:09:17';100500;;;8;49
30343;BME280;17145;49.902;8.680;'2023-02-21 09:11:44';100500;;;9;49
30343;BME280;17145;49.902;8.680;'2023-02-21 09:14:11';100500;;;8;49
30343;BME280;17145;49.902;8.680;'2023-02-21 09:16:39';100500;;;9;48
30343;BME280;17145;49.902;8.680;'2023-02-21 09:19:06';100500;;;8;48
30343;BME280;17145;49.902;8.680;'2023-02-21 09:21:34';100500;;;8;48
30343;BME280;17145;49.902;8.680;'2023-02-21 09:24:02';100500;;;9;47
30343;BME280;17145;49.902;8.680;'2023-02-21 09:26:29';100500;;;9;47
30343;BME280;17145;49.902;8.680;'2023-02-21 09:28:56';100500;;;9;48
30343;BME280;17145;49.902;8.680;'2023-02-21 09:31:24';100490;;;9;47
30343;BME280;17145;49.902;8.680;'2023-02-21 09:33:51';100490;;;9;47
30343;BME280;17145;49.902;8.680;'2023-02-21 09:36:19';100490;;;9;47
30343;BME280;17145;49.902;8.680;'2023-02-21 09:38:46';100480;;;9;47
30343;BME280;17145;49.902;8.680;'2023-02-21 09:41:13';100480;;;9;47
30343;BME280;17145;49.902;8.680;'2023-02-21 09:43:41';100480;;;9;47
30343;BME280;17145;49.902;8.680;'2023-02-21 09:46:08';100470;;;9;47
30343;BME280;17145;49.902;8.680;'2023-02-21 09:48:35';100480;;;9;47
30343;BME280;17145;49.902;8.680;'2023-02-21 09:51:03';100480;;;9;47
30343;BME280;17145;49.902;8.680;'2023-02-21 09:53:30';100480;;;9;47
30343;BME280;17145;49.902;8.680;'2023-02-21 09:55:58';100480;;;9;47
30343;BME280;17145;49.902;8.680;'2023-02-21 09:58:25';100480;;;9;47
30343;BME280;17145;49.902;8.680;'2023-02-21 10:00:52';100480;;;9;47
30343;BME280;17145;49.902;8.680;'2023-02-21 10:03:20';100480;;;9;47
30343;BME280;17145;49.902;8.680;'2023-02-21 10:05:47';100470;;;10;46
30343;BME280;17145;49.902;8.680;'2023-02-21 10:08:15';100470;;;9;46
30343;BME280;17145;49.902;8.680;'2023-02-21 10:10:42';100480;;;10;46
30343;BME280;17145;49.902;8.680;'2023-02-21 10:13:09';100480;;;10;46
30343;BME280;17145;49.902;8.680;'2023-02-21 10:15:37';100480;;;10;46
30343;BME280;17145;49.902;8.680;'2023-02-21 10:18:04';100480;;;10;46
30343;BME280;17145;49.902;8.680;'2023-02-21 10:20:32';100480;;;10;46
30343;BME280;17145;49.902;8.680;'2023-02-21 10:22:59';100470;;;10;46
30343;BME280;17145;49.902;8.680;'2023-02-21 10:25:27';100470;;;10;46
30343;BME280;17145;49.902;8.680;'2023-02-21 10:27:54';100470;;;10;46
30343;BME280;17145;49.902;8.680;'2023-02-21 10:30:25';100470;;;10;45
30343;BME280;17145;49.902;8.680;'2023-02-21 10:32:52';100470;;;10;46
30343;BME280;17145;49.902;8.680;'2023-02-21 10:35:20';100470;;;10;45
30343;BME280;17145;49.902;8.680;'2023-02-21 10:37:47';100470;;;10;45
30343;BME280;17145;49.902;8.680;'2023-02-21 10:40:26';100470;;;10;45
30343;BME280;17145;49.902;8.680;'2023-02-21 10:42:57';100470;;;10;45
30343;BME280;17145;49.902;8.680;'2023-02-21 10:45:27';100470;;;10;45
30343;BME280;17145;49.902;8.680;'2023-02-21 10:48:00';100470;;;10;45
30343;BME280;17145;49.902;8.680;'2023-02-21 10:50:31';100460;;;10;45
30343;BME280;17145;49.902;8.680;'2023-02-21 10:53:00';100460;;;11;45
30343;BME280;17145;49.902;8.680;'2023-02-21 10:55:32';100460;;;10;45
30343;BME280;17145;49.902;8.680;'2023-02-21 10:58:01';100470;;;11;44
30343;BME280;17145;49.902;8.680;'2023-02-21 11:00:32';100470;;;10;44
30343;BME280;17145;49.902;8.680;'2023-02-21 11:03:14';100470;;;11;44
30343;BME280;17145;49.902;8.680;'2023-02-21 11:05:45';100460;;;11;44
30343;BME280;17145;49.902;8.680;'2023-02-21 11:08:22';100460;;;11;44
30343;BME280;17145;49.902;8.680;'2023-02-21 11:10:55';100460;;;11;44
30343;BME280;17145;49.902;8.680;'2023-02-21 11:13:36';100460;;;11;43
30343;BME280;17145;49.902;8.680;'2023-02-21 11:16:12';100460;;;12;44
30343;BME280;17145;49.902;8.680;'2023-02-21 11:18:46';100460;;;12;43
30343;BME280;17145;49.902;8.680;'2023-02-21 11:21:20';100460;;;12;44
30343;BME280;17145;49.902;8.680;'2023-02-21 11:23:50';100460;;;12;44
30343;BME280;17145;49.902;8.680;'2023-02-21 11:26:23';100460;;;12;43
30343;BME280;17145;49.902;8.680;'2023-02-21 11:28:52';100460;;;12;42
30343;BME280;17145;49.902;8.680;'2023-02-21 11:31:26';100460;;;12;41
30343;BME280;17145;49.902;8.680;'2023-02-21 11:33:54';100460;;;12;41
30343;BME280;17145;49.902;8.680;'2023-02-21 11:36:22';100460;;;12;42
30343;BME280;17145;49.902;8.680;'2023-02-21 11:38:55';100450;;;12;42
30343;BME280;17145;49.902;8.680;'2023-02-21 11:41:26';100450;;;12;42
30343;BME280;17145;49.902;8.680;'2023-02-21 11:43:59';100450;;;12;41
30343;BME280;17145;49.902;8.680;'2023-02-21 11:49:08';100440;;;13;41
30343;BME280;17145;49.902;8.680;'2023-02-21 11:51:36';100440;;;13;40
30343;BME280;17145;49.902;8.680;'2023-02-21 11:54:19';100440;;;13;41
30343;BME280;17145;49.902;8.680;'2023-02-21 11:56:47';100440;;;12;41
30343;BME280;17145;49.902;8.680;'2023-02-21 11:59:22';100430;;;13;41
30343;BME280;17145;49.902;8.680;'2023-02-21 12:01:51';100430;;;13;40
30343;BME280;17145;49.902;8.680;'2023-02-21 12:04:27';100430;;;13;41
30343;BME280;17145;49.902;8.680;'2023-02-21 12:06:58';100430;;;13;40
30343;BME280;17145;49.902;8.680;'2023-02-21 12:09:33';100430;;;13;39
30343;BME280;17145;49.902;8.680;'2023-02-21 12:12:04';100420;;;13;39
30343;BME280;17145;49.902;8.680;'2023-02-21 12:14:33';100420;;;14;40
30343;BME280;17145;49.902;8.680;'2023-02-21 12:17:10';100420;;;14;39
30343;BME280;17145;49.902;8.680;'2023-02-21 12:19:47';100410;;;14;38
30343;BME280;17145;49.902;8.680;'2023-02-21 12:22:17';100410;;;14;39
30343;BME280;17145;49.902;8.680;'2023-02-21 12:24:50';100400;;;15;38
30343;BME280;17145;49.902;8.680;'2023-02-21 12:27:18';100400;;;15;37
30343;BME280;17145;49.902;8.680;'2023-02-21 12:29:49';100400;;;15;36
30343;BME280;17145;49.902;8.680;'2023-02-21 12:32:24';100400;;;15;36
30343;BME280;17145;49.902;8.680;'2023-02-21 12:35:00';100390;;;15;36
30343;BME280;17145;49.902;8.680;'2023-02-21 12:37:28';100390;;;15;36
30343;BME280;17145;49.902;8.680;'2023-02-21 12:39:55';100380;;;15;35
30343;BME280;17145;49.902;8.680;'2023-02-21 12:42:26';100380;;;15;36
30343;BME280;17145;49.902;8.680;'2023-02-21 12:45:08';100370;;;15;35
30343;BME280;17145;49.902;8.680;'2023-02-21 12:47:42';100370;;;15;35
30343;BME280;17145;49.902;8.680;'2023-02-21 12:50:19';100360;;;15;37
30343;BME280;17145;49.902;8.680;'2023-02-21 12:52:53';100360;;;15;36
30343;BME280;17145;49.902;8.680;'2023-02-21 12:55:23';100350;;;16;36
30343;BME280;17145;49.902;8.680;'2023-02-21 12:58:00';100340;;;16;35
30343;BME280;17145;49.902;8.680;'2023-02-21 13:00:35';100340;;;16;35
30343;BME280;17145;49.902;8.680;'2023-02-21 13:03:17';100330;;;16;35
30343;BME280;17145;49.902;8.680;'2023-02-21 13:05:53';100320;;;16;34
30343;BME280;17145;49.902;8.680;'2023-02-21 13:08:34';100320;;;16;34
30343;BME280;17145;49.902;8.680;'2023-02-21 13:11:15';100310;;;16;34
30343;BME280;17145;49.902;8.680;'2023-02-21 13:13:52';100310;;;16;34
30343;BME280;17145;49.902;8.680;'2023-02-21 13:16:31';100300;;;16;34
30343;BME280;17145;49.902;8.680;'2023-02-21 13:19:15';100290;;;17;33
30343;BME280;17145;49.902;8.680;'2023-02-21 13:21:59';100290;;;16;34
30343;BME280;17145;49.902;8.680;'2023-02-21 13:24:44';100280;;;17;33
30343;BME280;17145;49.902;8.680;'2023-02-21 13:27:21';100280;;;17;34
30343;BME280;17145;49.902;8.680;'2023-02-21 13:30:05';100280;;;16;33
30343;BME280;17145;49.902;8.680;'2023-02-21 13:32:47';100280;;;17;33
30343;BME280;17145;49.902;8.680;'2023-02-21 13:35:35';100280;;;17;34
30343;BME280;17145;49.902;8.680;'2023-02-21 13:38:09';100270;;;17;34
30343;BME280;17145;49.902;8.680;'2023-02-21 13:40:45';100270;;;17;33
30343;BME280;17145;49.902;8.680;'2023-02-21 13:43:26';100260;;;17;33
30343;BME280;17145;49.902;8.680;'2023-02-21 13:46:04';100250;;;17;33
30343;BME280;17145;49.902;8.680;'2023-02-21 13:48:39';100250;;;17;33
30343;BME280;17145;49.902;8.680;'2023-02-21 13:51:11';100250;;;17;34
30343;BME280;17145;49.902;8.680;'2023-02-21 13:53:46';100250;;;17;34
30343;BME280;17145;49.902;8.680;'2023-02-21 13:56:19';100240;;;17;33
30343;BME280;17145;49.902;8.680;'2023-02-21 13:58:52';100240;;;17;32
30343;BME280;17145;49.902;8.680;'2023-02-21 14:01:25';100240;;;18;32
30343;BME280;17145;49.902;8.680;'2023-02-21 14:04:03';100230;;;17;31
30343;BME280;17145;49.902;8.680;'2023-02-21 14:06:34';100240;;;17;32
30343;BME280;17145;49.902;8.680;'2023-02-21 14:09:14';100230;;;17;32
30343;BME280;17145;49.902;8.680;'2023-02-21 14:11:50';100230;;;17;33
30343;BME280;17145;49.902;8.680;'2023-02-21 14:14:25';100220;;;18;33
30343;BME280;17145;49.902;8.680;'2023-02-21 14:16:53';100220;;;17;32
30343;BME280;17145;49.902;8.680;'2023-02-21 14:19:23';100210;;;18;32
30343;BME280;17145;49.902;8.680;'2023-02-21 14:22:04';100210;;;18;32
30343;BME280;17145;49.902;8.680;'2023-02-21 14:24:47';100210;;;18;32
30343;BME280;17145;49.902;8.680;'2023-02-21 14:27:38';100200;;;18;32
30343;BME280;17145;49.902;8.680;'2023-02-21 14:30:13';100210;;;18;32
30343;BME280;17145;49.902;8.680;'2023-02-21 14:32:51';100200;;;18;31
30343;BME280;17145;49.902;8.680;'2023-02-21 14:35:26';100200;;;18;30
30343;BME280;17145;49.902;8.680;'2023-02-21 14:37:54';100190;;;18;31
30343;BME280;17145;49.902;8.680;'2023-02-21 14:40:24';100190;;;18;31
30343;BME280;17145;49.902;8.680;'2023-02-21 14:43:02';100180;;;18;31
30343;BME280;17145;49.902;8.680;'2023-02-21 14:45:30';100180;;;18;31
30343;BME280;17145;49.902;8.680;'2023-02-21 14:48:18';100180;;;18;32
30343;BME280;17145;49.902;8.680;'2023-02-21 14:50:47';100180;;;18;31
30343;BME280;17145;49.902;8.680;'2023-02-21 14:56:04';100170;;;19;31
30343;BME280;17145;49.902;8.680;'2023-02-21 14:58:34';100170;;;18;30
30343;BME280;17145;49.902;8.680;'2023-02-21 15:01:15';100160;;;19;30
30343;BME280;17145;49.902;8.680;'2023-02-21 15:03:42';100160;;;19;30
30343;BME280;17145;49.902;8.680;'2023-02-21 15:06:30';100160;;;20;28
30343;BME280;17145;49.902;8.680;'2023-02-21 15:09:02';100160;;;21;28
30343;BME280;17145;49.902;8.680;'2023-02-21 15:14:10';100150;;;23;26
30343;BME280;17145;49.902;8.680;'2023-02-21 15:16:47';100140;;;23;25
30343;BME280;17145;49.902;8.680;'2023-02-21 15:19:22';100130;;;24;24
30343;BME280;17145;49.902;8.680;'2023-02-21 15:21:58';100130;;;24;24
30343;BME280;17145;49.902;8.680;'2023-02-21 15:24:29';100130;;;25;23
30343;BME280;17145;49.902;8.680;'2023-02-21 15:27:02';100130;;;25;23
30343;BME280;17145;49.902;8.680;'2023-02-21 15:29:33';100120;;;25;22
30343;BME280;17145;49.902;8.680;'2023-02-21 15:32:15';100120;;;25;22
30343;BME280;17145;49.902;8.680;'2023-02-21 15:34:51';100120;;;25;22
30343;BME280;17145;49.902;8.680;'2023-02-21 15:37:25';100120;;;25;22
30343;BME280;17145;49.902;8.680;'2023-02-21 15:42:32';100120;;;24;23
30343;BME280;17145;49.902;8.680;'2023-02-21 15:45:22';100110;;;24;24
30343;BME280;17145;49.902;8.680;'2023-02-21 15:48:08';100110;;;23;24
30343;BME280;17145;49.902;8.680;'2023-02-21 15:53:32';100100;;;23;24
30343;BME280;17145;49.902;8.680;'2023-02-21 15:59:01';100100;;;22;24
30343;BME280;17145;49.902;8.680;'2023-02-21 16:01:48';100100;;;23;24
30343;BME280;17145;49.902;8.680;'2023-02-21 16:04:23';100100;;;24;23